Waterloo, Texas
Current Conditions -  °F | °C
As of 4:58 AM on Friday 24 Oct 2014 (Local Time) from KGRK Reporting Station
Clear Clear  
Wind Chill: 63°   Ceiling: Unl
Heat Index: 63°   Visibility: 10mi
Dew Point: 55°   Wind: 6mph
Humidity: 76%   Direction: 180°S
Pressure: 30.13"   Gusts: NA
Location:  30.5793°N, 97.5096°W
Report Text: KGRK 240958Z AUTO 18005KT 10SM CLR 17/13 A3013 RMK AO2 SLP195 T01700128
Loading
Personal Weather Stations






























Interactive Weather Map
Tropical Storm Tracking
New forecast layout! Learn more

10-Day Weather Forecast

Advertisements
Track Severe Weather on mobile